Time;durP1;ratioP1;P1;durP2;ratioP2;P2;SDS_P1;SDS_P2;PMS_P1;PMS_P2;Temp;Humidity;BMP_temperature;BMP_pressure;BME280_temperature;BME280_humidity;BME280_pressure;Samples;Min_cycle;Max_cycle;Signal;HPM_P1;HPM_P2
2022/06/01 00:00:09;;;;;;;10.38;7.07;;;10.50;99.90;;;;;;4966131;28;20485;-35
2022/06/01 00:02:37;;;;;;;11.13;8.27;;;10.50;99.90;;;;;;4965623;28;20066;-35
2022/06/01 00:05:03;;;;;;;12.02;8.35;;;10.50;99.90;;;;;;4963984;28;20046;-35
2022/06/01 00:07:38;;;;;;;11.00;8.15;;;10.50;99.90;;;;;;4954672;28;20465;-35
2022/06/01 00:10:04;;;;;;;14.43;8.98;;;10.50;99.90;;;;;;4965208;28;20069;-35
2022/06/01 00:12:31;;;;;;;11.63;9.20;;;10.50;99.90;;;;;;4964226;28;20047;-35
2022/06/01 00:14:57;;;;;;;12.43;9.47;;;10.50;99.90;;;;;;4967457;28;20137;-35
2022/06/01 00:17:24;;;;;;;12.20;9.73;;;10.50;99.90;;;;;;4953826;28;20505;-35
2022/06/01 00:19:50;;;;;;;12.95;9.90;;;10.50;99.90;;;;;;4963640;28;20047;-35
2022/06/01 00:22:16;;;;;;;13.88;9.43;;;10.50;99.90;;;;;;4956603;28;20047;-35
2022/06/01 00:24:44;;;;;;;12.27;9.15;;;10.50;99.90;;;;;;4973862;28;20123;-35
2022/06/01 00:27:12;;;;;;;11.90;10.00;;;10.50;99.90;;;;;;4954239;28;20081;-35
2022/06/01 00:29:44;;;;;;;11.07;9.45;;;10.60;99.90;;;;;;4970270;28;20578;-35
2022/06/01 00:32:11;;;;;;;12.40;9.50;;;10.60;99.90;;;;;;4959869;28;20055;-35
2022/06/01 00:34:38;;;;;;;13.02;10.15;;;10.60;99.90;;;;;;4964664;28;20445;-35
2022/06/01 00:37:10;;;;;;;10.50;9.27;;;10.60;99.90;;;;;;4953347;28;20150;-35
2022/06/01 00:39:37;;;;;;;11.70;9.30;;;10.60;99.90;;;;;;4965150;28;20122;-35
2022/06/01 00:42:19;;;;;;;14.02;10.30;;;10.60;99.90;;;;;;4945311;28;20094;-35
2022/06/01 00:44:47;;;;;;;11.82;9.60;;;10.60;99.90;;;;;;4962645;28;20566;-35
2022/06/01 00:47:15;;;;;;;11.57;10.02;;;10.60;99.90;;;;;;4954877;28;20079;-35
2022/06/01 00:49:44;;;;;;;13.27;10.15;;;10.70;99.90;;;;;;4965156;28;20125;-35
2022/06/01 00:52:10;;;;;;;13.57;10.18;;;10.70;99.90;;;;;;4963467;28;20059;-35
2022/06/01 00:54:36;;;;;;;12.45;10.30;;;10.70;99.90;;;;;;4962692;28;20102;-35
2022/06/01 00:57:08;;;;;;;13.48;9.80;;;10.70;99.90;;;;;;4955503;28;20324;-35
2022/06/01 00:59:38;;;;;;;14.52;9.73;;;10.70;99.90;;;;;;4960830;28;20534;-35
2022/06/01 01:02:06;;;;;;;12.65;9.50;;;10.60;99.90;;;;;;4964670;28;20589;-35
2022/06/01 01:04:33;;;;;;;12.95;10.25;;;10.70;99.90;;;;;;4961754;28;20110;-35
2022/06/01 01:07:04;;;;;;;13.27;10.65;;;10.70;99.90;;;;;;4957010;28;20510;-35
2022/06/01 01:09:31;;;;;;;9.48;7.55;;;10.70;99.90;;;;;;4961292;28;20501;-35
2022/06/01 01:11:59;;;;;;;12.70;10.43;;;10.70;99.90;;;;;;4962790;28;20038;-35
2022/06/01 01:14:30;;;;;;;14.35;11.55;;;10.60;99.90;;;;;;4963175;28;20047;-35
2022/06/01 01:16:59;;;;;;;13.98;10.93;;;10.70;99.90;;;;;;4953686;28;20049;-35
2022/06/01 01:19:31;;;;;;;13.60;11.38;;;10.70;99.90;;;;;;4963523;28;20051;-35
2022/06/01 01:22:22;;;;;;;10.77;9.43;;;10.70;99.90;;;;;;4962577;28;20053;-35
2022/06/01 01:25:17;;;;;;;11.65;9.65;;;10.70;99.90;;;;;;4965076;28;20310;-35
2022/06/01 01:27:45;;;;;;;12.80;10.27;;;10.70;99.90;;;;;;4954029;28;20035;-35
2022/06/01 01:30:38;;;;;;;12.98;9.98;;;10.70;99.90;;;;;;4963989;28;20050;-35
2022/06/01 01:33:11;;;;;;;13.73;10.25;;;10.70;99.90;;;;;;4962453;28;20454;-35
2022/06/01 01:35:37;;;;;;;13.20;10.65;;;10.70;99.90;;;;;;4964479;28;20089;-35
2022/06/01 01:38:09;;;;;;;12.65;11.05;;;10.70;99.90;;;;;;4954372;28;20130;-34
2022/06/01 01:40:35;;;;;;;12.10;10.82;;;10.80;99.90;;;;;;4963720;28;20429;-35
2022/06/01 01:43:06;;;;;;;12.13;10.80;;;10.80;99.90;;;;;;4963495;28;20043;-35
2022/06/01 01:45:34;;;;;;;11.55;10.13;;;10.80;99.90;;;;;;4962532;28;20054;-35
2022/06/01 01:48:00;;;;;;;11.77;10.32;;;10.80;99.90;;;;;;4954049;28;20135;-35
2022/06/01 01:50:28;;;;;;;13.70;10.98;;;10.80;99.90;;;;;;4964340;28;20502;-34
2022/06/01 01:52:53;;;;;;;13.60;10.63;;;10.70;99.90;;;;;;4963791;28;20132;-35
2022/06/01 01:55:41;;;;;;;12.57;10.80;;;10.80;99.90;;;;;;4964199;28;20055;-35
2022/06/01 01:58:26;;;;;;;13.38;11.70;;;10.80;99.90;;;;;;4952690;28;20043;-35
2022/06/01 02:01:03;;;;;;;12.85;11.55;;;10.80;99.90;;;;;;4965186;28;20058;-36
2022/06/01 02:03:38;;;;;;;12.15;10.82;;;10.80;99.90;;;;;;4947161;28;20051;-35
2022/06/01 02:06:12;;;;;;;13.35;11.38;;;10.80;99.90;;;;;;4962911;28;20542;-35
2022/06/01 02:08:54;;;;;;;14.30;12.57;;;10.80;99.90;;;;;;4941617;28;20047;-35
2022/06/01 02:14:35;;;;;;;13.32;11.95;;;10.90;99.90;;;;;;4965278;28;20059;-35
2022/06/01 02:17:13;;;;;;;14.80;13.02;;;10.80;99.90;;;;;;4956050;28;20511;-35
2022/06/01 02:19:57;;;;;;;16.25;12.68;;;10.70;99.90;;;;;;4968379;28;20440;-35
2022/06/01 02:22:24;;;;;;;14.25;12.75;;;10.70;99.90;;;;;;4966245;28;20134;-36
2022/06/01 02:24:50;;;;;;;15.00;12.50;;;10.70;99.90;;;;;;4948988;28;20059;-35
2022/06/01 02:27:18;;;;;;;18.60;12.45;;;10.70;99.90;;;;;;4955573;28;20045;-35
2022/06/01 02:29:50;;;;;;;13.75;11.82;;;10.70;99.90;;;;;;4965961;28;20058;-35
2022/06/01 02:32:17;;;;;;;13.25;11.45;;;10.70;99.90;;;;;;4965499;28;20042;-35
2022/06/01 02:34:45;;;;;;;13.73;11.65;;;10.90;99.90;;;;;;4968533;28;20061;-34
2022/06/01 02:37:16;;;;;;;13.07;11.75;;;10.80;99.90;;;;;;4957986;28;20105;-35
2022/06/01 02:39:45;;;;;;;17.15;12.48;;;10.80;99.90;;;;;;4967029;28;20134;-34
2022/06/01 02:42:26;;;;;;;16.20;12.60;;;10.80;99.90;;;;;;4965468;28;20055;-35
2022/06/01 02:44:59;;;;;;;13.70;12.07;;;10.80;99.90;;;;;;4961852;28;20050;-34
2022/06/01 02:47:27;;;;;;;16.60;13.30;;;10.80;99.90;;;;;;4947157;28;20716;-35
2022/06/01 02:49:53;;;;;;;15.05;12.88;;;10.80;99.90;;;;;;4964695;28;20060;-34
2022/06/01 02:52:19;;;;;;;14.32;11.75;;;10.70;99.90;;;;;;4965666;28;20059;-34
2022/06/01 02:54:44;;;;;;;17.45;12.43;;;10.80;99.90;;;;;;4968250;28;20074;-34
2022/06/01 02:57:10;;;;;;;17.58;13.77;;;10.80;99.90;;;;;;4955724;28;20145;-34
2022/06/01 02:59:36;;;;;;;15.13;12.23;;;10.80;99.90;;;;;;4971293;28;20638;-34
2022/06/01 03:02:03;;;;;;;14.70;12.25;;;10.70;99.90;;;;;;4968465;28;20034;-34
2022/06/01 03:04:29;;;;;;;16.00;13.38;;;10.70;99.90;;;;;;4968810;28;20050;-34
2022/06/01 03:06:55;;;;;;;16.77;13.80;;;10.70;99.90;;;;;;4956784;28;20119;-34
2022/06/01 03:09:21;;;;;;;16.58;13.65;;;10.70;99.90;;;;;;4967524;28;20042;-34
2022/06/01 03:11:46;;;;;;;13.95;12.35;;;10.70;99.90;;;;;;4971449;28;20498;-34
2022/06/01 03:14:12;;;;;;;17.95;13.82;;;10.70;99.90;;;;;;4970290;28;20054;-34
2022/06/01 03:16:38;;;;;;;14.95;12.90;;;10.70;99.90;;;;;;4958276;28;20043;-34
2022/06/01 03:19:05;;;;;;;19.13;15.07;;;10.70;99.90;;;;;;4968433;28;20059;-34
2022/06/01 03:21:30;;;;;;;16.55;14.00;;;10.60;99.90;;;;;;4971348;28;20047;-34
2022/06/01 03:23:56;;;;;;;15.88;14.18;;;10.60;99.90;;;;;;4965649;28;20525;-34
2022/06/01 03:26:23;;;;;;;16.00;12.77;;;10.60;99.90;;;;;;4960060;28;20118;-34
2022/06/01 03:28:49;;;;;;;15.35;13.77;;;10.60;99.90;;;;;;4967028;28;20058;-34
2022/06/01 03:31:15;;;;;;;16.15;13.23;;;10.60;99.90;;;;;;4968802;28;20039;-34
2022/06/01 03:33:41;;;;;;;15.15;13.07;;;10.70;99.90;;;;;;4970793;28;20055;-33
2022/06/01 03:36:07;;;;;;;14.05;12.40;;;10.70;99.90;;;;;;4966316;28;20770;-34
2022/06/01 03:38:33;;;;;;;13.43;11.98;;;10.60;99.90;;;;;;4958945;28;20050;-33
2022/06/01 03:40:59;;;;;;;17.48;13.65;;;10.60;99.90;;;;;;4970682;28;20054;-34
2022/06/01 03:43:25;;;;;;;15.57;13.68;;;10.70;99.90;;;;;;4968362;28;20050;-34
2022/06/01 03:45:58;;;;;;;19.50;15.50;;;10.60;99.90;;;;;;4971643;28;20047;-33
2022/06/01 03:48:29;;;;;;;19.15;16.13;;;10.60;99.90;;;;;;4954472;28;20089;-34
2022/06/01 03:50:56;;;;;;;15.45;13.82;;;10.60;99.90;;;;;;4967141;28;20055;-34
2022/06/01 03:53:24;;;;;;;17.38;14.23;;;10.60;99.90;;;;;;4968952;28;20403;-34
2022/06/01 03:55:51;;;;;;;17.10;15.30;;;10.60;99.90;;;;;;4971676;28;20137;-34
2022/06/01 03:58:19;;;;;;;16.27;14.30;;;10.60;99.90;;;;;;4951829;28;20097;-34
2022/06/01 04:00:46;;;;;;;17.10;14.02;;;10.60;99.90;;;;;;4970187;28;20047;-33
2022/06/01 04:03:12;;;;;;;19.73;15.02;;;10.60;99.90;;;;;;4966996;28;20057;-34
2022/06/01 04:05:38;;;;;;;21.20;15.25;;;10.60;99.90;;;;;;4970350;28;20038;-34
2022/06/01 04:08:05;;;;;;;18.35;15.13;;;10.60;99.90;;;;;;4953152;28;20046;-34
2022/06/01 04:10:33;;;;;;;19.65;16.58;;;10.60;99.90;;;;;;4968609;28;20049;-34
2022/06/01 04:12:59;;;;;;;17.92;15.18;;;10.70;99.90;;;;;;4969232;28;20813;-39
2022/06/01 04:15:24;;;;;;;19.40;16.20;;;10.70;99.90;;;;;;4970319;28;20051;-34
2022/06/01 04:17:50;;;;;;;18.95;15.68;;;10.80;99.90;;;;;;4951359;28;20047;-34
2022/06/01 04:20:16;;;;;;;20.73;15.82;;;10.70;99.90;;;;;;4968484;28;20458;-34
2022/06/01 04:22:43;;;;;;;19.48;16.30;;;10.70;99.90;;;;;;4968922;28;20047;-34
2022/06/01 04:25:13;;;;;;;19.25;15.85;;;10.70;99.90;;;;;;4967147;28;20051;-34
2022/06/01 04:27:39;;;;;;;23.40;17.63;;;10.70;99.90;;;;;;4953079;28;20118;-35
2022/06/01 04:30:07;;;;;;;23.85;18.13;;;10.70;99.90;;;;;;4969957;28;20055;-34
2022/06/01 04:32:33;;;;;;;20.35;16.70;;;10.70;99.90;;;;;;4969008;28;20521;-34
2022/06/01 04:35:01;;;;;;;20.48;17.98;;;10.70;99.90;;;;;;4968406;28;20061;-34
2022/06/01 04:37:26;;;;;;;20.52;16.75;;;10.70;99.90;;;;;;4955313;28;20060;-34
2022/06/01 04:39:52;;;;;;;19.42;16.90;;;10.80;99.90;;;;;;4969174;28;20057;-34
2022/06/01 04:42:18;;;;;;;18.83;16.38;;;10.80;99.90;;;;;;4968254;28;20054;-34
2022/06/01 04:44:44;;;;;;;17.70;15.43;;;10.80;99.90;;;;;;4969130;28;20054;-34
2022/06/01 04:47:10;;;;;;;17.42;15.45;;;10.90;99.90;;;;;;4949657;28;20055;-34
2022/06/01 04:49:36;;;;;;;19.02;15.65;;;10.80;99.90;;;;;;4970032;28;20129;-34
2022/06/01 04:52:02;;;;;;;22.30;16.70;;;10.90;99.90;;;;;;4949457;28;20054;-34
2022/06/01 04:54:28;;;;;;;21.65;16.55;;;10.90;99.90;;;;;;4968345;28;20058;-34
2022/06/01 04:56:53;;;;;;;22.05;16.73;;;10.90;99.90;;;;;;4954547;28;20566;-34
2022/06/01 04:59:19;;;;;;;19.45;16.80;;;10.90;99.90;;;;;;4969244;28;20094;-34
2022/06/01 05:01:46;;;;;;;19.58;16.48;;;10.90;99.90;;;;;;4966552;28;20078;-34
2022/06/01 05:04:11;;;;;;;18.17;16.30;;;11.00;99.90;;;;;;4965077;28;20082;-34
2022/06/01 05:06:37;;;;;;;18.38;15.95;;;11.00;99.90;;;;;;4954725;28;20071;-33
2022/06/01 05:09:04;;;;;;;17.02;15.20;;;11.00;99.90;;;;;;4965238;28;20570;-34
2022/06/01 05:11:29;;;;;;;17.90;15.32;;;11.00;99.90;;;;;;4967168;28;20078;-34
2022/06/01 05:13:55;;;;;;;18.38;16.48;;;11.10;99.90;;;;;;4967259;28;20085;-34
2022/06/01 05:16:21;;;;;;;19.08;17.13;;;10.90;99.90;;;;;;4954512;28;20086;-34
2022/06/01 05:18:46;;;;;;;23.15;18.27;;;11.00;99.90;;;;;;4963404;28;20134;-34
2022/06/01 05:21:12;;;;;;;20.13;17.42;;;10.90;99.90;;;;;;4967662;28;20046;-34
2022/06/01 05:23:38;;;;;;;20.38;16.83;;;11.00;99.90;;;;;;4963519;28;20042;-34
2022/06/01 05:26:04;;;;;;;20.25;17.25;;;11.10;99.90;;;;;;4967633;28;20066;-34
2022/06/01 05:28:32;;;;;;;21.25;17.40;;;11.10;99.90;;;;;;4953239;28;20055;-34
2022/06/01 05:30:59;;;;;;;19.15;17.15;;;11.00;99.90;;;;;;4966609;28;20403;-35
2022/06/01 05:33:25;;;;;;;20.73;16.85;;;11.00;99.90;;;;;;4968648;28;20042;-34
2022/06/01 05:35:51;;;;;;;18.85;15.73;;;11.10;99.90;;;;;;4962957;28;20054;-34
2022/06/01 05:38:16;;;;;;;20.00;17.90;;;11.20;99.90;;;;;;4952863;28;20043;-34
2022/06/01 05:40:42;;;;;;;19.48;17.40;;;11.20;99.90;;;;;;4966583;28;20525;-34
2022/06/01 05:43:10;;;;;;;19.98;17.17;;;11.30;99.90;;;;;;4965726;28;20502;-34
2022/06/01 05:45:36;;;;;;;20.80;17.83;;;11.30;99.90;;;;;;4965820;28;20034;-34
2022/06/01 05:48:02;;;;;;;20.10;17.88;;;11.40;99.90;;;;;;4954822;28;20502;-34
2022/06/01 05:50:28;;;;;;;23.17;18.52;;;11.50;99.90;;;;;;4970580;28;20081;-34
2022/06/01 05:52:54;;;;;;;21.75;18.48;;;11.60;99.90;;;;;;4971193;28;20511;-34
2022/06/01 05:55:19;;;;;;;20.92;17.52;;;11.80;99.90;;;;;;4971852;28;20094;-34
2022/06/01 05:57:45;;;;;;;21.27;17.05;;;11.90;99.90;;;;;;4954322;28;20042;-34
2022/06/01 06:00:16;;;;;;;19.88;17.23;;;12.10;99.90;;;;;;4973394;28;20407;-34
2022/06/01 06:02:42;;;;;;;19.63;17.50;;;12.20;99.90;;;;;;4971260;28;20039;-34
2022/06/01 06:07:57;;;;;;;20.55;16.02;;;12.40;99.90;;;;;;4955655;28;20054;-34
2022/06/01 06:10:24;;;;;;;17.10;14.65;;;12.50;99.90;;;;;;4972517;28;20059;-33
2022/06/01 06:12:50;;;;;;;18.77;12.38;;;12.50;99.90;;;;;;4969801;28;20051;-32
2022/06/01 06:15:17;;;;;;;22.75;11.48;;;12.50;99.90;;;;;;4972066;28;20062;-32
2022/06/01 06:17:43;;;;;;;11.43;9.27;;;12.30;99.90;;;;;;4956271;28;20039;-32
2022/06/01 06:20:09;;;;;;;15.18;10.82;;;12.20;99.90;;;;;;4967417;28;20089;-32
2022/06/01 06:22:35;;;;;;;14.60;10.48;;;12.10;99.90;;;;;;4969168;28;20050;-33
2022/06/01 06:25:01;;;;;;;14.32;10.57;;;12.10;99.90;;;;;;4965962;28;20046;-32
2022/06/01 06:27:29;;;;;;;14.82;11.82;;;12.10;99.90;;;;;;4950238;28;20042;-32
2022/06/01 06:29:55;;;;;;;15.27;12.05;;;12.00;99.90;;;;;;4966982;28;20047;-32
2022/06/01 06:32:21;;;;;;;13.95;11.35;;;11.90;99.90;;;;;;4964506;28;20046;-33
2022/06/01 06:34:47;;;;;;;12.75;11.43;;;12.00;99.90;;;;;;4965070;28;20414;-33
2022/06/01 06:37:13;;;;;;;13.35;11.73;;;12.00;99.90;;;;;;4953270;28;20051;-32
2022/06/01 06:39:39;;;;;;;13.73;11.80;;;11.80;99.90;;;;;;4967207;28;20163;-33
2022/06/01 06:42:05;;;;;;;12.82;11.45;;;11.80;99.90;;;;;;4964300;28;20687;-34
2022/06/01 06:44:33;;;;;;;11.38;10.07;;;11.70;99.90;;;;;;4966361;28;20490;-32
2022/06/01 06:46:59;;;;;;;15.13;10.23;;;11.70;99.90;;;;;;4951414;28;20053;-32
2022/06/01 06:49:25;;;;;;;10.27;7.53;;;11.70;99.90;;;;;;4962782;28;20047;-33
2022/06/01 06:51:51;;;;;;;7.20;6.50;;;11.60;99.90;;;;;;4959692;28;20534;-33
2022/06/01 06:54:18;;;;;;;8.80;7.32;;;11.70;99.90;;;;;;4964755;28;20043;-33
2022/06/01 06:56:44;;;;;;;12.20;8.35;;;11.60;99.90;;;;;;4955453;28;20042;-33
2022/06/01 06:59:12;;;;;;;13.32;8.63;;;11.60;99.90;;;;;;4969978;28;20529;-33
2022/06/01 07:01:38;;;;;;;16.10;8.80;;;11.60;99.90;;;;;;4964929;28;20104;-33
2022/06/01 07:04:04;;;;;;;9.90;8.40;;;11.60;99.90;;;;;;4968941;28;20047;-33
2022/06/01 07:06:30;;;;;;;8.45;6.68;;;11.60;99.90;;;;;;4970423;28;20055;-33
2022/06/01 07:08:56;;;;;;;9.23;7.25;;;11.60;99.90;;;;;;4955431;28;20131;-33
2022/06/01 07:11:25;;;;;;;8.75;6.85;;;11.60;99.90;;;;;;4968866;28;20442;-33
2022/06/01 07:13:51;;;;;;;7.45;6.68;;;11.50;99.90;;;;;;4971114;28;20050;-33
2022/06/01 07:16:29;;;;;;;7.82;6.65;;;11.70;99.90;;;;;;4949801;28;20422;-34
2022/06/01 07:18:56;;;;;;;5.18;4.35;;;11.60;99.90;;;;;;4956737;28;20043;-33
2022/06/01 07:21:22;;;;;;;4.22;3.67;;;11.80;99.90;;;;;;4963744;28;20047;-33
2022/06/01 07:23:49;;;;;;;4.18;3.55;;;11.80;99.90;;;;;;4962329;28;20054;-33
2022/06/01 07:26:27;;;;;;;4.82;3.83;;;11.90;99.90;;;;;;4953652;28;20130;-34
2022/06/01 07:28:53;;;;;;;5.20;4.70;;;11.90;99.90;;;;;;4957179;28;20074;-33
2022/06/01 07:31:19;;;;;;;6.50;5.68;;;12.00;99.90;;;;;;4963502;28;20066;-33
2022/06/01 07:33:46;;;;;;;7.70;6.78;;;12.00;99.90;;;;;;4962603;28;20043;-34
2022/06/01 07:36:14;;;;;;;8.63;7.72;;;12.10;99.90;;;;;;4957063;28;20074;-34
2022/06/01 07:44:23;;;;;;;9.45;8.45;;;12.40;99.90;;;;;;4962660;28;20494;-33
2022/06/01 07:46:48;;;;;;;9.95;8.60;;;12.40;99.90;;;;;;4950227;28;20039;-34
2022/06/01 07:49:16;;;;;;;7.07;5.90;;;12.50;99.90;;;;;;4944413;28;20073;-33
2022/06/01 07:51:42;;;;;;;6.40;5.40;;;12.50;99.90;;;;;;4940031;28;20516;-34
2022/06/01 07:54:08;;;;;;;5.80;5.20;;;12.50;99.90;;;;;;4956751;28;20074;-34
2022/06/01 07:56:33;;;;;;;4.53;4.13;;;12.60;99.90;;;;;;4951164;28;20507;-34
2022/06/01 07:58:59;;;;;;;4.50;3.30;;;12.60;99.90;;;;;;4964460;28;20051;-34
2022/06/01 08:01:26;;;;;;;4.90;3.33;;;12.70;99.90;;;;;;4968348;28;20058;-34
2022/06/01 08:03:53;;;;;;;2.75;2.50;;;12.70;99.90;;;;;;4968375;28;20598;-33
2022/06/01 08:06:19;;;;;;;2.45;2.22;;;12.80;99.90;;;;;;4952933;28;20578;-34
2022/06/01 08:08:44;;;;;;;2.25;1.85;;;12.80;99.90;;;;;;4962101;28;20059;-34
2022/06/01 08:11:10;;;;;;;1.90;1.73;;;12.90;99.90;;;;;;4966909;28;20486;-33
2022/06/01 08:13:36;;;;;;;2.00;1.80;;;12.90;99.90;;;;;;4965000;28;20046;-34
2022/06/01 08:16:03;;;;;;;1.63;1.52;;;12.90;99.90;;;;;;4962858;28;20046;-34
2022/06/01 08:18:29;;;;;;;1.40;1.30;;;13.00;99.90;;;;;;4947668;28;20039;-33
2022/06/01 08:20:54;;;;;;;1.50;1.40;;;13.00;99.90;;;;;;4964671;28;20516;-34
2022/06/01 08:23:22;;;;;;;3.78;2.20;;;13.10;99.90;;;;;;4966164;28;20049;-34
2022/06/01 08:25:49;;;;;;;2.50;2.10;;;13.20;99.90;;;;;;4966440;28;20031;-34
2022/06/01 08:28:15;;;;;;;4.35;2.95;;;13.20;99.90;;;;;;4941677;28;20138;-34
2022/06/01 08:30:41;;;;;;;5.20;3.03;;;13.30;99.90;;;;;;4959176;28;21552;-34
2022/06/01 08:33:09;;;;;;;4.28;2.40;;;13.40;99.90;;;;;;4963764;28;20058;-34
2022/06/01 08:35:41;;;;;;;3.47;3.17;;;13.40;99.90;;;;;;4965928;28;20105;-33
2022/06/01 08:38:07;;;;;;;4.05;2.50;;;13.30;99.90;;;;;;4954171;28;20534;-34
2022/06/01 08:40:59;;;;;;;3.67;2.33;;;13.50;99.90;;;;;;4969491;28;20086;-34
2022/06/01 08:44:03;;;;;;;2.58;2.38;;;13.50;99.90;;;;;;4960870;28;20038;-33
2022/06/01 08:46:30;;;;;;;3.25;2.33;;;13.60;99.90;;;;;;4954422;28;20066;-34
2022/06/01 08:49:01;;;;;;;3.30;2.45;;;13.50;99.90;;;;;;4964057;28;20058;-34
2022/06/01 08:51:29;;;;;;;2.80;2.60;;;13.60;99.90;;;;;;4922694;28;1092400;-34
2022/06/01 08:53:56;;;;;;;3.28;2.50;;;13.70;99.90;;;;;;4963165;28;20153;-34
2022/06/01 08:56:36;;;;;;;2.60;2.40;;;13.70;99.90;;;;;;4951444;28;20046;-34
2022/06/01 08:59:21;;;;;;;2.97;2.25;;;13.80;99.90;;;;;;4951881;28;20171;-34
2022/06/01 09:01:49;;;;;;;2.70;2.45;;;13.90;99.90;;;;;;4948229;29;20046;-34
2022/06/01 09:04:24;;;;;;;2.55;2.28;;;13.90;99.90;;;;;;4939716;28;20082;-34
2022/06/01 09:07:26;;;;;;;3.08;2.53;;;14.00;99.90;;;;;;4926528;29;20138;-34
2022/06/01 09:10:06;;;;;;;;;;;14.10;99.90;;;;;;4940765;29;20039;-34
2022/06/01 09:12:33;;;;;;;3.08;2.45;;;14.20;99.90;;;;;;4943441;28;19922;-34
2022/06/01 09:15:12;;;;;;;3.05;1.88;;;14.20;99.90;;;;;;4941783;28;20040;-34
2022/06/01 09:17:40;;;;;;;2.30;2.10;;;14.30;99.90;;;;;;4925213;28;20047;-34
2022/06/01 09:22:53;;;;;;;2.40;2.17;;;14.40;99.90;;;;;;4939166;28;20055;-34
2022/06/01 09:25:27;;;;;;;2.53;2.33;;;14.50;99.90;;;;;;4944190;29;20613;-34
2022/06/01 09:27:59;;;;;;;2.25;2.05;;;14.50;99.90;;;;;;4930024;28;20031;-34
2022/06/01 09:30:42;;;;;;;2.28;1.85;;;14.60;99.90;;;;;;4940523;28;20399;-34
2022/06/01 09:33:29;;;;;;;2.38;1.70;;;14.60;99.90;;;;;;4942574;29;20099;-34
2022/06/01 09:36:06;;;;;;;1.77;1.65;;;14.70;99.90;;;;;;4943690;29;20079;-34
2022/06/01 09:38:40;;;;;;;2.17;1.80;;;14.70;99.90;;;;;;4927901;29;20039;-34
2022/06/01 09:41:17;;;;;;;1.52;1.25;;;14.70;99.90;;;;;;4949811;29;20055;-34
2022/06/01 09:43:58;;;;;;;1.25;1.15;;;14.70;99.90;;;;;;4942139;28;20044;-34
2022/06/01 09:46:32;;;;;;;;;;;14.70;99.90;;;;;;4936823;28;20063;-34
2022/06/01 09:48:58;;;;;;;1.75;0.70;;;14.60;99.90;;;;;;4936832;28;19929;-34
2022/06/01 09:51:25;;;;;;;1.85;0.85;;;14.70;99.90;;;;;;4943803;29;20055;-34
2022/06/01 09:54:08;;;;;;;0.55;0.45;;;14.70;99.90;;;;;;4931600;28;20078;-34
2022/06/01 09:56:46;;;;;;;1.95;0.77;;;14.70;99.90;;;;;;4932230;29;20047;-34
2022/06/01 10:08:05;;;;;;;1.25;1.00;;;14.70;99.90;;;;;;4922312;28;20532;-34
2022/06/01 10:10:30;;;;;;;1.77;1.20;;;14.80;99.90;;;;;;4939549;29;20051;-34
2022/06/01 10:13:01;;;;;;;1.42;0.95;;;14.90;99.90;;;;;;4941142;28;20455;-34
2022/06/01 10:15:42;;;;;;;2.58;0.90;;;14.90;99.90;;;;;;4940104;29;20051;-34
2022/06/01 10:18:20;;;;;;;1.17;0.77;;;14.90;99.90;;;;;;4924269;28;20450;-35
2022/06/01 10:20:52;;;;;;;0.95;0.60;;;15.00;99.90;;;;;;4942754;29;20074;-34
2022/06/01 10:23:25;;;;;;;0.47;0.43;;;15.00;99.90;;;;;;4939190;28;20150;-34
2022/06/01 10:26:19;;;;;;;1.23;0.60;;;15.10;99.90;;;;;;4940022;29;20499;-34
2022/06/01 10:28:51;;;;;;;1.08;0.60;;;15.10;99.90;;;;;;4939750;28;20079;-34
2022/06/01 10:31:29;;;;;;;0.90;0.80;;;15.10;99.90;;;;;;4939280;29;20047;-34
2022/06/01 10:34:05;;;;;;;0.80;0.70;;;15.10;99.90;;;;;;4944490;28;20078;-34
2022/06/01 10:37:08;;;;;;;2.67;1.00;;;15.20;99.90;;;;;;4933336;29;20040;-34
2022/06/01 10:39:41;;;;;;;1.27;0.70;;;15.20;99.90;;;;;;4959402;28;20046;-34
2022/06/01 10:42:16;;;;;;;1.08;0.90;;;15.20;99.90;;;;;;4949990;28;20407;-35
2022/06/01 10:44:45;;;;;;;3.08;1.33;;;15.20;99.90;;;;;;4945739;29;20059;-34
2022/06/01 10:47:15;;;;;;;2.80;1.50;;;15.20;99.90;;;;;;4926474;28;20051;-34
2022/06/01 10:49:54;;;;;;;2.58;1.40;;;15.20;99.90;;;;;;4940761;28;20047;-34
2022/06/01 10:52:24;;;;;;;1.80;1.45;;;15.10;99.90;;;;;;4942109;28;20075;-34
2022/06/01 10:54:59;;;;;;;2.40;1.20;;;15.10;99.90;;;;;;4940724;29;20082;-34
2022/06/01 10:57:25;;;;;;;1.80;1.00;;;15.10;99.90;;;;;;4918879;28;20058;-34
2022/06/01 10:59:51;;;;;;;1.48;1.00;;;15.10;99.90;;;;;;4941006;29;20492;-34
2022/06/01 11:02:26;;;;;;;1.95;0.90;;;15.20;99.90;;;;;;4932328;28;20047;-34
2022/06/01 11:05:02;;;;;;;1.58;1.08;;;15.10;99.90;;;;;;4934991;29;20131;-34
2022/06/01 11:08:04;;;;;;;2.28;1.20;;;15.10;99.90;;;;;;4921517;28;20054;-35
2022/06/01 11:10:35;;;;;;;1.00;0.80;;;15.10;99.90;;;;;;4935438;29;20083;-34
2022/06/01 11:13:39;;;;;;;1.05;0.70;;;15.10;99.90;;;;;;4939413;28;20573;-34
2022/06/01 11:16:15;;;;;;;1.05;0.40;;;15.10;99.90;;;;;;4932164;29;20396;-34
2022/06/01 11:18:58;;;;;;;0.52;0.22;;;15.10;99.90;;;;;;4936611;29;20055;-34
2022/06/01 11:21:23;;;;;;;1.27;0.30;;;15.00;99.90;;;;;;4940290;29;20055;-34
2022/06/01 11:24:18;;;;;;;1.40;0.68;;;15.00;99.90;;;;;;4938485;28;20051;-34
2022/06/01 11:27:02;;;;;;;1.17;0.73;;;15.10;99.90;;;;;;4918451;29;20054;-35
2022/06/01 11:30:08;;;;;;;2.00;0.60;;;15.20;99.90;;;;;;4937053;28;20102;-34
2022/06/01 11:32:48;;;;;;;0.50;0.30;;;15.20;99.90;;;;;;4932141;28;20103;-34
2022/06/01 11:35:29;;;;;;;2.97;0.40;;;15.20;99.90;;;;;;4939718;28;20127;-34
2022/06/01 11:38:14;;;;;;;3.70;0.30;;;15.20;99.90;;;;;;4923925;29;21269;-34
2022/06/01 11:41:03;;;;;;;0.28;0.17;;;15.20;99.90;;;;;;4937670;28;20055;-34
2022/06/01 11:43:32;;;;;;;0.40;0.15;;;15.20;99.90;;;;;;4937660;29;20051;-34
2022/06/01 11:46:16;;;;;;;0.95;0.30;;;15.20;99.90;;;;;;4945733;29;20407;-34
2022/06/01 11:48:48;;;;;;;0.88;0.30;;;15.10;99.90;;;;;;4953761;28;20145;-34
2022/06/01 11:51:20;;;;;;;1.55;0.57;;;15.20;99.90;;;;;;4960711;28;20089;-34
2022/06/01 11:53:46;;;;;;;;;;;15.20;99.90;;;;;;4967632;28;20090;-34
2022/06/01 11:56:28;;;;;;;1.10;0.85;;;15.30;99.90;;;;;;4956259;28;19981;-35
2022/06/01 11:59:20;;;;;;;2.17;1.45;;;15.30;99.90;;;;;;4959514;28;20050;-34
2022/06/01 12:01:48;;;;;;;;;;;15.30;99.90;;;;;;4957075;28;20078;-34
2022/06/01 12:04:22;;;;;;;3.67;1.35;;;15.30;99.90;;;;;;4958522;28;19933;-34
2022/06/01 12:07:05;;;;;;;2.20;1.33;;;15.20;99.90;;;;;;4951473;28;20047;-34
2022/06/01 12:09:57;;;;;;;1.38;1.00;;;15.20;99.90;;;;;;4964563;28;20105;-34
2022/06/01 12:12:32;;;;;;;2.50;0.90;;;15.20;99.90;;;;;;4964711;28;20046;-35
2022/06/01 12:15:14;;;;;;;0.93;0.70;;;15.10;99.90;;;;;;4961369;28;20387;-34
2022/06/01 12:18:13;;;;;;;0.88;0.80;;;15.10;99.90;;;;;;4940718;28;20149;-34
2022/06/01 12:20:38;;;;;;;1.90;0.90;;;15.10;99.90;;;;;;4960510;28;20571;-34
2022/06/01 12:29:07;;;;;;;2.13;1.63;;;15.30;99.90;;;;;;4961750;28;20086;-34
2022/06/01 12:32:06;;;;;;;3.00;2.10;;;15.40;99.90;;;;;;4964356;28;20061;-34
2022/06/01 12:34:42;;;;;;;2.25;1.95;;;15.40;99.90;;;;;;4957501;28;20098;-34
2022/06/01 12:37:17;;;;;;;3.28;1.92;;;15.30;99.90;;;;;;4952476;28;20117;-34
2022/06/01 12:39:50;;;;;;;2.60;2.00;;;15.30;99.90;;;;;;4965001;28;20640;-34
2022/06/01 12:42:40;;;;;;;1.92;1.73;;;15.20;99.90;;;;;;4959391;28;20047;-34
2022/06/01 12:45:12;;;;;;;1.52;1.42;;;15.10;99.90;;;;;;4965181;28;20058;-34
2022/06/01 12:47:53;;;;;;;2.40;1.60;;;14.90;99.90;;;;;;4951031;28;20149;-35
2022/06/01 12:50:22;;;;;;;2.35;1.58;;;14.80;99.90;;;;;;4961583;28;20443;-34
2022/06/01 12:53:06;;;;;;;1.50;1.40;;;14.60;99.90;;;;;;4963050;28;20053;-34
2022/06/01 12:55:32;;;;;;;1.50;1.40;;;14.50;99.90;;;;;;4966249;28;20039;-33
2022/06/01 12:58:00;;;;;;;1.40;1.20;;;14.40;99.90;;;;;;4947623;28;20054;-33
2022/06/01 13:00:33;;;;;;;1.50;1.40;;;14.30;99.90;;;;;;4958919;28;20039;-33
2022/06/01 13:02:59;;;;;;;2.05;1.30;;;14.30;99.90;;;;;;4961147;28;20043;-33
2022/06/01 13:05:38;;;;;;;1.60;1.50;;;14.20;99.90;;;;;;4963041;28;20054;-33
2022/06/01 13:08:08;;;;;;;3.35;1.40;;;14.10;99.90;;;;;;4944685;28;20465;-33
2022/06/01 13:10:35;;;;;;;1.70;1.27;;;14.00;99.90;;;;;;4962536;28;20577;-34
2022/06/01 13:13:07;;;;;;;1.35;1.25;;;14.00;99.90;;;;;;4964761;28;20043;-34
2022/06/01 13:15:34;;;;;;;2.30;1.38;;;14.10;99.90;;;;;;4948546;28;20046;-34
2022/06/01 13:18:04;;;;;;;1.60;1.20;;;14.10;99.90;;;;;;4948437;28;20043;-34
2022/06/01 13:20:36;;;;;;;1.80;1.10;;;14.10;99.90;;;;;;4966248;28;20505;-34
2022/06/01 13:23:05;;;;;;;3.42;0.93;;;14.10;99.90;;;;;;4961970;28;20106;-34
2022/06/01 13:25:34;;;;;;;1.23;0.82;;;14.10;99.90;;;;;;4959303;28;20054;-34